Terminal Aerodrome Forecast
Issued by NWS Glasgow, MT

Home | Current Version | Previous Version | Text Only | Print | Product List | Glossary On
Versions: 1 2 3 4 5 6 7 8 9 10 11 12 13 14 15
000
FTUS45 KGGW 012300 AAA
TAFGGW
TAF AMD
KGGW 012332Z 0200/0224 04009KT P6SM SCT100
      TEMPO 0200/0203 VRB15G25KT -TSRA BKN080CB
     FM020300 08009KT P6SM SCT110
     FM020900 11008KT P6SM SKC=

USA.gov is the U.S. government's official web portal to all federal, state and local government web resources and services.